createdAt,value
2019-04-05T00:02:01.558Z,99.90
2019-04-05T00:04:43.631Z,99.90
2019-04-05T00:07:25.307Z,99.90
2019-04-05T00:10:07.498Z,99.90
2019-04-05T00:12:49.874Z,99.90
2019-04-05T00:15:29.774Z,99.90
2019-04-05T00:18:18.721Z,99.90
2019-04-05T00:21:09.219Z,99.90
2019-04-05T00:23:59.697Z,99.90
2019-04-05T00:26:50.183Z,99.90
2019-04-05T00:29:39.028Z,99.90
2019-04-05T00:32:47.696Z,99.90
2019-04-05T00:35:38.194Z,99.90
2019-04-05T00:38:46.544Z,99.90
2019-04-05T00:41:37.568Z,99.90
2019-04-05T00:44:28.084Z,99.90
2019-04-05T00:47:18.720Z,99.90
2019-04-05T00:50:09.320Z,99.90
2019-04-05T00:53:17.673Z,99.90
2019-04-05T00:56:06.675Z,99.90
2019-04-05T00:59:15.007Z,99.90
2019-04-05T01:02:24.519Z,99.90
2019-04-05T01:05:32.822Z,99.90
2019-04-05T01:08:21.710Z,99.90
2019-04-05T01:11:30.045Z,99.90
2019-04-05T01:14:20.877Z,99.90
2019-04-05T01:17:29.215Z,99.90
2019-04-05T01:20:18.089Z,99.90
2019-04-05T01:23:08.771Z,99.90
2019-04-05T01:26:20.042Z,99.90
2019-04-05T01:29:10.729Z,99.90
2019-04-05T01:32:19.017Z,99.90
2019-04-05T01:35:27.366Z,99.90
2019-04-05T01:38:17.874Z,99.90
2019-04-05T01:41:08.336Z,99.90
2019-04-05T01:43:58.839Z,99.90
2019-04-05T01:46:49.246Z,99.90
2019-04-05T01:49:38.179Z,99.90
2019-04-05T01:52:28.901Z,99.90
2019-04-05T01:55:19.407Z,99.90
2019-04-05T01:58:08.210Z,99.90
2019-04-05T02:01:09.625Z,99.90
2019-04-05T02:03:52.000Z,99.90
2019-04-05T02:06:33.475Z,99.90
2019-04-05T02:09:15.556Z,99.90
2019-04-05T02:11:57.808Z,99.90
2019-04-05T02:14:39.838Z,99.90
2019-04-05T02:17:22.204Z,99.90
2019-04-05T02:20:06.215Z,99.90
2019-04-05T02:22:48.607Z,99.90
2019-04-05T02:25:30.144Z,99.90
2019-04-05T02:28:12.185Z,99.90
2019-04-05T02:30:54.587Z,99.90
2019-04-05T02:33:36.981Z,99.90
2019-04-05T02:36:18.999Z,99.90
2019-04-05T02:39:01.207Z,99.90
2019-04-05T02:41:43.102Z,99.90
2019-04-05T02:44:24.885Z,99.90
2019-04-05T02:47:07.321Z,99.90
2019-04-05T02:49:49.344Z,99.90
2019-04-05T02:52:31.204Z,99.90
2019-04-05T02:55:13.160Z,99.90
2019-04-05T02:57:54.816Z,99.90
2019-04-05T03:00:37.478Z,99.90
2019-04-05T03:03:19.121Z,99.90
2019-04-05T03:06:01.358Z,99.90
2019-04-05T03:08:43.500Z,99.90
2019-04-05T03:11:23.765Z,99.90
2019-04-05T03:14:12.822Z,99.90
2019-04-05T03:17:03.286Z,99.90
2019-04-05T03:20:11.896Z,99.90
2019-04-05T03:23:02.392Z,99.90
2019-04-05T03:26:31.741Z,99.90
2019-04-05T03:29:20.876Z,99.90
2019-04-05T03:32:11.426Z,99.90
2019-04-05T03:35:00.425Z,99.90
2019-04-05T03:37:50.950Z,99.90
2019-04-05T03:40:41.399Z,99.90
2019-04-05T03:43:32.028Z,99.90
2019-04-05T03:46:21.004Z,99.90
2019-04-05T03:49:11.453Z,99.90
2019-04-05T03:52:02.298Z,99.90
2019-04-05T03:55:10.940Z,99.90
2019-04-05T03:58:20.994Z,99.90
2019-04-05T04:01:04.822Z,99.90
2019-04-05T04:03:47.536Z,99.90
2019-04-05T04:06:29.847Z,99.90
2019-04-05T04:09:11.732Z,99.90
2019-04-05T04:11:53.583Z,99.90
2019-04-05T04:14:35.232Z,99.90
2019-04-05T04:17:13.490Z,99.90
2019-04-05T04:20:01.999Z,99.90
2019-04-05T04:22:52.450Z,99.90
2019-04-05T04:25:41.687Z,99.90
2019-04-05T04:28:50.062Z,99.90
2019-04-05T04:31:40.557Z,99.90
2019-04-05T04:34:31.385Z,99.90
2019-04-05T04:37:22.016Z,99.90
2019-04-05T04:40:30.575Z,99.90
2019-04-05T04:43:21.095Z,99.90
2019-04-05T04:46:29.431Z,99.90
2019-04-05T04:49:18.285Z,99.90
2019-04-05T04:52:09.057Z,99.90
2019-04-05T04:54:58.122Z,99.90
2019-04-05T04:58:06.431Z,99.90
2019-04-05T05:00:47.907Z,99.90
2019-04-05T05:03:30.564Z,99.90
2019-04-05T05:06:12.088Z,99.90
2019-04-05T05:08:53.673Z,99.90
2019-04-05T05:11:35.391Z,99.90
2019-04-05T05:14:18.411Z,99.90
2019-04-05T05:17:00.280Z,99.90
2019-04-05T05:19:42.219Z,99.90
2019-04-05T05:22:24.383Z,99.90
2019-04-05T05:25:06.207Z,99.90
2019-04-05T05:27:47.913Z,99.90
2019-04-05T05:30:30.006Z,99.90
2019-04-05T05:33:12.555Z,99.90
2019-04-05T05:35:54.559Z,99.90
2019-04-05T05:38:36.004Z,99.90
2019-04-05T05:41:18.243Z,99.90
2019-04-05T05:44:00.767Z,99.90
2019-04-05T05:46:42.868Z,99.90
2019-04-05T05:49:25.690Z,99.90
2019-04-05T05:52:07.660Z,99.90
2019-04-05T05:54:49.801Z,99.90
2019-04-05T05:57:31.657Z,99.90
2019-04-05T06:00:14.510Z,99.90
2019-04-05T06:02:56.484Z,99.90
2019-04-05T06:05:38.672Z,99.90
2019-04-05T06:08:21.063Z,99.90
2019-04-05T06:11:03.609Z,99.90
2019-04-05T06:13:45.670Z,99.90
2019-04-05T06:16:27.920Z,99.90
2019-04-05T06:19:09.699Z,99.90
2019-04-05T06:21:51.499Z,99.90
2019-04-05T06:24:33.634Z,99.90
2019-04-05T06:27:15.641Z,99.90
2019-04-05T06:29:57.166Z,99.90
2019-04-05T06:32:39.212Z,99.90
2019-04-05T06:35:20.989Z,99.90
2019-04-05T06:38:03.640Z,99.90
2019-04-05T06:40:45.318Z,99.90
2019-04-05T06:43:27.446Z,99.90
2019-04-05T06:46:09.580Z,99.90
2019-04-05T06:48:52.056Z,99.90
2019-04-05T06:51:34.387Z,99.90
2019-04-05T06:54:16.696Z,99.90
2019-04-05T06:56:58.691Z,99.90
2019-04-05T06:59:40.426Z,99.90
2019-04-05T07:02:21.923Z,99.90
2019-04-05T07:05:03.807Z,99.90
2019-04-05T07:07:45.484Z,99.90
2019-04-05T07:10:27.415Z,99.90
2019-04-05T07:13:08.959Z,99.90
2019-04-05T07:15:50.791Z,99.90
2019-04-05T07:18:36.018Z,99.90
2019-04-05T07:21:17.497Z,99.90
2019-04-05T07:23:59.446Z,99.90
2019-04-05T07:26:41.323Z,99.90
2019-04-05T07:29:23.051Z,99.90
2019-04-05T07:32:04.755Z,99.90
2019-04-05T07:34:46.761Z,99.90
2019-04-05T07:37:28.843Z,99.90
2019-04-05T07:40:10.358Z,99.90
2019-04-05T07:42:52.654Z,99.90
2019-04-05T07:45:32.598Z,99.90
2019-04-05T07:48:21.462Z,99.90
2019-04-05T07:51:11.927Z,99.90
2019-04-05T07:54:20.493Z,99.90
2019-04-05T07:57:09.430Z,99.90
2019-04-05T07:59:53.292Z,99.90
2019-04-05T08:02:34.931Z,99.90
2019-04-05T08:05:16.844Z,99.90
2019-04-05T08:07:58.650Z,99.90
2019-04-05T08:10:40.615Z,99.90
2019-04-05T08:13:22.629Z,99.90
2019-04-05T08:16:06.044Z,99.90
2019-04-05T08:18:57.811Z,99.90
2019-04-05T08:21:32.647Z,99.90
2019-04-05T08:24:15.029Z,99.90
2019-04-05T08:26:56.607Z,99.90
2019-04-05T08:29:38.507Z,99.90
2019-04-05T08:32:20.653Z,99.90
2019-04-05T08:35:02.853Z,99.90
2019-04-05T08:37:44.767Z,99.90
2019-04-05T08:40:26.290Z,99.90
2019-04-05T08:43:10.404Z,99.90
2019-04-05T08:45:52.768Z,99.90
2019-04-05T08:48:34.801Z,99.90
2019-04-05T08:51:16.946Z,99.90
2019-04-05T08:53:58.976Z,99.90
2019-04-05T08:56:40.701Z,99.90
2019-04-05T08:59:22.593Z,99.90
2019-04-05T09:02:04.727Z,99.90
2019-04-05T09:04:46.445Z,99.90
2019-04-05T09:07:28.419Z,99.90
2019-04-05T09:10:10.930Z,99.90
2019-04-05T09:12:53.027Z,99.90
2019-04-05T09:15:35.256Z,99.90
2019-04-05T09:18:18.746Z,99.90
2019-04-05T09:21:00.824Z,99.90
2019-04-05T09:23:42.670Z,99.90
2019-04-05T09:26:24.563Z,99.90
2019-04-05T09:29:04.540Z,99.90
2019-04-05T09:31:53.588Z,99.90
2019-04-05T09:34:44.036Z,99.90
2019-04-05T09:37:52.432Z,99.90
2019-04-05T09:40:42.919Z,99.90
2019-04-05T09:43:33.596Z,99.90
2019-04-05T09:46:47.114Z,99.90
2019-04-05T09:49:51.838Z,99.90
2019-04-05T09:52:40.725Z,99.90
2019-04-05T09:55:49.014Z,99.90
2019-04-05T09:58:37.922Z,99.90
2019-04-05T10:01:28.606Z,99.90
2019-04-05T10:04:19.055Z,99.90
2019-04-05T10:07:09.480Z,99.90
2019-04-05T10:09:59.961Z,99.90
2019-04-05T10:12:50.522Z,99.90
2019-04-05T10:15:41.012Z,99.90
2019-04-05T10:18:42.759Z,99.90
2019-04-05T10:21:24.596Z,99.90
2019-04-05T10:24:06.314Z,99.90
2019-04-05T10:26:48.377Z,99.90
2019-04-05T10:29:30.951Z,99.90
2019-04-05T10:32:13.139Z,99.90
2019-04-05T10:34:55.051Z,99.90
2019-04-05T10:37:36.921Z,99.90
2019-04-05T10:40:18.759Z,99.90
2019-04-05T10:43:00.268Z,99.90
2019-04-05T10:45:41.878Z,99.90
2019-04-05T10:48:24.298Z,99.90
2019-04-05T10:51:06.784Z,99.90
2019-04-05T10:53:48.652Z,99.90
2019-04-05T10:56:30.750Z,99.90
2019-04-05T10:59:13.105Z,99.90
2019-04-05T11:01:55.465Z,99.90
2019-04-05T11:04:37.623Z,99.90
2019-04-05T11:07:20.005Z,99.90
2019-04-05T11:10:02.079Z,99.90
2019-04-05T11:12:43.687Z,99.90
2019-04-05T11:15:26.518Z,99.90
2019-04-05T11:18:09.020Z,99.90
2019-04-05T11:20:50.456Z,99.90
2019-04-05T11:23:32.963Z,99.90
2019-04-05T11:26:14.615Z,99.90
2019-04-05T11:28:56.744Z,99.90
2019-04-05T11:31:38.343Z,99.90
2019-04-05T11:34:21.232Z,99.90
2019-04-05T11:37:03.099Z,99.90
2019-04-05T11:39:46.384Z,99.90
2019-04-05T11:42:29.088Z,99.90
2019-04-05T11:45:11.371Z,99.90
2019-04-05T11:47:53.698Z,99.90
2019-04-05T11:50:36.916Z,99.90
2019-04-05T11:53:21.898Z,99.90
2019-04-05T11:56:13.896Z,99.90
2019-04-05T11:58:48.803Z,99.90
2019-04-05T12:01:32.379Z,99.90
2019-04-05T12:04:14.252Z,99.90
2019-04-05T12:06:56.716Z,99.90
2019-04-05T12:09:38.591Z,99.90
2019-04-05T12:12:21.015Z,99.90
2019-04-05T12:15:06.223Z,99.90
2019-04-05T12:17:47.185Z,99.90
2019-04-05T12:20:16.713Z,99.90
2019-04-05T12:23:25.946Z,99.90
2019-04-05T12:26:14.832Z,99.90
2019-04-05T12:29:05.327Z,99.90
2019-04-05T12:35:09.801Z,99.90
2019-04-05T12:38:00.264Z,99.90
2019-04-05T12:40:50.827Z,99.90
2019-04-05T12:43:44.516Z,99.90
2019-04-05T12:46:51.874Z,99.90
2019-04-05T12:49:43.358Z,99.90
2019-04-05T12:52:52.691Z,99.90
2019-04-05T12:55:41.807Z,99.90
2019-04-05T12:58:50.163Z,99.90
2019-04-05T13:04:48.409Z,99.90
2019-04-05T13:07:56.860Z,99.90
2019-04-05T13:10:48.051Z,99.90
2019-04-05T13:13:57.787Z,99.90
2019-04-05T13:17:06.127Z,99.90
2019-04-05T13:19:48.190Z,99.90
2019-04-05T13:22:32.265Z,99.90
2019-04-05T13:25:14.020Z,99.90
2019-04-05T13:27:58.249Z,99.90
2019-04-05T13:30:40.899Z,99.90
2019-04-05T13:33:23.636Z,99.90
2019-04-05T13:36:08.427Z,98.40
2019-04-05T13:38:54.934Z,99.70
2019-04-05T13:41:33.762Z,97.50
2019-04-05T13:44:15.880Z,96.30
2019-04-05T13:46:58.366Z,98.30
2019-04-05T13:49:40.754Z,95.60
2019-04-05T13:52:23.681Z,94.30
2019-04-05T13:54:53.388Z,93.00
2019-04-05T13:57:44.031Z,93.20
2019-04-05T14:00:32.996Z,96.00
2019-04-05T14:03:41.440Z,95.20
2019-04-05T14:06:30.421Z,95.30
2019-04-05T14:09:20.957Z,98.40
2019-04-05T14:12:31.312Z,99.00
2019-04-05T14:15:19.873Z,99.90
2019-04-05T14:17:49.556Z,99.90
2019-04-05T14:20:21.125Z,99.90
2019-04-05T14:22:52.255Z,99.90
2019-04-05T14:25:25.332Z,99.90
2019-04-05T14:28:12.856Z,99.90
2019-04-05T14:31:02.448Z,99.90
2019-04-05T14:34:12.137Z,99.90
2019-04-05T14:37:03.032Z,99.90
2019-04-05T14:39:52.294Z,99.90
2019-04-05T14:43:00.809Z,99.90
2019-04-05T14:46:08.993Z,99.90
2019-04-05T14:48:52.443Z,99.90
2019-04-05T14:51:52.544Z,99.90
2019-04-05T14:54:51.458Z,99.60
2019-04-05T14:57:59.857Z,99.90
2019-04-05T15:00:48.946Z,99.90
2019-04-05T15:03:38.421Z,99.90
2019-04-05T15:06:28.971Z,99.90
2019-04-05T15:09:37.352Z,97.00
2019-04-05T15:12:28.864Z,96.50
2019-04-05T15:15:36.488Z,95.80
2019-04-05T15:18:26.130Z,96.20
2019-04-05T15:21:28.305Z,97.50
2019-04-05T15:24:10.651Z,98.10
2019-04-05T15:26:52.773Z,99.90
2019-04-05T15:29:35.416Z,99.90
2019-04-05T15:32:19.324Z,99.90
2019-04-05T15:35:01.405Z,99.90
2019-04-05T15:37:43.206Z,99.90
2019-04-05T15:40:25.154Z,99.90
2019-04-05T15:43:07.162Z,99.90
2019-04-05T15:45:48.771Z,99.90
2019-04-05T15:48:31.624Z,98.90
2019-04-05T15:51:14.044Z,99.90
2019-04-05T15:53:56.417Z,99.90
2019-04-05T15:56:38.215Z,99.90
2019-04-05T15:59:21.951Z,99.90
2019-04-05T16:02:04.440Z,99.90
2019-04-05T16:04:45.895Z,99.90
2019-04-05T16:07:27.979Z,99.90
2019-04-05T16:10:09.741Z,99.90
2019-04-05T16:12:51.380Z,99.90
2019-04-05T16:15:33.849Z,95.30
2019-04-05T16:18:16.257Z,91.10
2019-04-05T16:20:58.296Z,86.10
2019-04-05T16:23:40.627Z,82.20
2019-04-05T16:26:23.210Z,77.30
2019-04-05T16:29:05.644Z,70.80
2019-04-05T16:31:47.691Z,68.20
2019-04-05T16:34:30.644Z,66.20
2019-04-05T16:37:12.309Z,68.70
2019-04-05T16:46:00.059Z,80.00
2019-04-05T16:48:42.996Z,88.10
2019-04-05T16:51:25.488Z,91.00
2019-04-05T16:54:07.094Z,92.40
2019-04-05T16:56:49.533Z,94.50
2019-04-05T16:59:31.432Z,96.90
2019-04-05T17:02:13.568Z,99.90
2019-04-05T17:04:55.310Z,99.90
2019-04-05T17:07:37.381Z,99.90
2019-04-05T17:10:19.534Z,99.90
2019-04-05T17:13:01.264Z,99.90
2019-04-05T17:15:42.778Z,99.90
2019-04-05T17:18:25.087Z,99.90
2019-04-05T17:21:07.592Z,99.90
2019-04-05T17:23:49.343Z,99.90
2019-04-05T17:26:31.702Z,99.90
2019-04-05T17:29:14.585Z,99.90
2019-04-05T17:31:56.322Z,99.90
2019-04-05T17:34:26.110Z,99.90
2019-04-05T17:36:55.593Z,99.90
2019-04-05T17:39:25.121Z,99.90
2019-04-05T17:41:54.630Z,99.90
2019-04-05T17:44:24.742Z,99.90
2019-04-05T17:46:54.535Z,99.90
2019-04-05T17:49:24.043Z,99.90
2019-04-05T17:51:53.555Z,99.90
2019-04-05T17:54:23.074Z,99.90
2019-04-05T17:56:52.653Z,99.90
2019-04-05T17:59:22.736Z,99.90
2019-04-05T18:01:52.503Z,99.90
2019-04-05T18:04:21.973Z,99.90
2019-04-05T18:06:51.510Z,99.90
2019-04-05T18:09:21.088Z,99.90
2019-04-05T18:11:50.595Z,99.90
2019-04-05T18:14:20.084Z,99.90
2019-04-05T18:16:49.647Z,99.90
2019-04-05T18:19:19.258Z,99.90
2019-04-05T18:21:48.920Z,99.90
2019-04-05T18:24:18.716Z,99.90
2019-04-05T18:26:48.521Z,99.90
2019-04-05T18:29:18.071Z,99.90
2019-04-05T18:31:47.595Z,99.90
2019-04-05T18:34:17.145Z,99.90
2019-04-05T18:36:46.696Z,99.90
2019-04-05T18:39:16.801Z,99.90
2019-04-05T18:41:46.593Z,99.90
2019-04-05T18:44:16.155Z,99.90
2019-04-05T18:46:45.673Z,99.90
2019-04-05T18:49:15.226Z,99.90
2019-04-05T18:51:44.791Z,99.90
2019-04-05T18:54:14.835Z,99.90
2019-04-05T18:56:44.541Z,99.90
2019-04-05T18:59:14.350Z,99.90
2019-04-05T19:01:44.876Z,99.90
2019-04-05T19:04:14.801Z,99.90
2019-04-05T19:06:44.245Z,99.90
2019-04-05T19:09:13.783Z,99.90
2019-04-05T19:11:43.243Z,99.90
2019-04-05T19:14:12.878Z,99.90
2019-04-05T19:16:42.625Z,99.90
2019-04-05T19:19:12.205Z,99.90
2019-04-05T19:21:41.709Z,99.90
2019-04-05T19:24:11.353Z,99.90
2019-04-05T19:26:41.218Z,99.90
2019-04-05T19:29:10.797Z,99.90
2019-04-05T19:49:19.285Z,99.90
2019-04-05T19:51:48.754Z,99.90
2019-04-05T19:54:18.323Z,99.90
2019-04-05T19:56:47.871Z,99.90
2019-04-05T19:59:17.942Z,99.90
2019-04-05T20:01:47.683Z,99.90
2019-04-05T20:04:17.209Z,99.90
2019-04-05T20:06:46.979Z,99.90
2019-04-05T20:09:17.015Z,99.90
2019-04-05T20:11:46.816Z,99.90
2019-04-05T20:14:16.291Z,99.90
2019-04-05T20:16:45.845Z,99.90
2019-04-05T20:19:15.921Z,99.90
2019-04-05T20:21:45.718Z,99.90
2019-04-05T20:24:15.175Z,99.90
2019-04-05T20:26:44.758Z,99.90
2019-04-05T20:29:14.332Z,99.90
2019-04-05T20:31:43.941Z,99.90
2019-04-05T20:34:14.035Z,99.90
2019-04-05T20:36:43.779Z,99.90
2019-04-05T20:39:13.286Z,99.90
2019-04-05T20:41:42.760Z,99.90
2019-04-05T20:44:12.221Z,99.90
2019-04-05T20:46:41.777Z,99.90
2019-04-05T20:49:12.047Z,99.90
2019-04-05T20:51:41.789Z,99.90
2019-04-05T20:54:11.311Z,99.90
2019-04-05T20:56:40.872Z,99.90
2019-04-05T20:59:10.416Z,99.90
2019-04-05T21:01:39.976Z,99.90
2019-04-05T21:04:09.792Z,99.90
2019-04-05T21:06:39.384Z,99.90
2019-04-05T21:09:09.047Z,99.90
2019-04-05T21:11:38.820Z,99.90
2019-04-05T21:14:08.566Z,99.90
2019-04-05T21:16:38.058Z,99.90
2019-04-05T21:19:07.977Z,99.90
2019-04-05T21:21:37.830Z,99.90
2019-04-05T21:24:07.539Z,99.90
2019-04-05T21:26:37.095Z,99.90
2019-04-05T21:29:07.095Z,99.90
2019-04-05T21:31:36.810Z,99.90
2019-04-05T21:34:07.346Z,99.90
2019-04-05T21:36:36.834Z,99.90
2019-04-05T21:39:07.622Z,99.90
2019-04-05T21:41:37.167Z,99.90
2019-04-05T21:44:07.201Z,99.90
2019-04-05T21:46:36.866Z,99.90
2019-04-05T21:49:07.138Z,99.90
2019-04-05T21:51:36.847Z,99.90
2019-04-05T21:54:07.213Z,99.90
2019-04-05T21:56:36.884Z,99.90
2019-04-05T21:59:07.159Z,99.90
2019-04-05T22:01:37.007Z,99.90
2019-04-05T22:04:07.255Z,99.90
2019-04-05T22:06:36.893Z,99.90
2019-04-05T22:09:08.529Z,99.90
2019-04-05T22:11:38.057Z,99.90
2019-04-05T22:14:08.021Z,99.90
2019-04-05T22:16:37.839Z,99.90
2019-04-05T22:19:07.372Z,99.90
2019-04-05T22:21:36.904Z,99.90
2019-04-05T22:24:07.156Z,99.90
2019-04-05T22:26:36.930Z,99.90
2019-04-05T22:29:26.648Z,99.90
2019-04-05T22:32:17.301Z,99.90
2019-04-05T22:35:26.636Z,99.90
2019-04-05T22:38:15.605Z,99.90
2019-04-05T22:41:23.913Z,99.90
2019-04-05T22:44:14.494Z,99.90
2019-04-05T22:47:22.809Z,99.90
2019-04-05T22:50:31.695Z,99.90
2019-04-05T22:53:22.428Z,99.90
2019-04-05T22:56:30.772Z,99.90
2019-04-05T22:59:21.498Z,99.90
2019-04-05T23:02:23.163Z,99.90
2019-04-05T23:05:05.227Z,99.90
2019-04-05T23:07:47.755Z,99.90
2019-04-05T23:10:30.239Z,99.90
2019-04-05T23:13:12.777Z,99.90
2019-04-05T23:15:54.489Z,99.90
2019-04-05T23:18:36.116Z,99.90
2019-04-05T23:21:17.354Z,99.90
2019-04-05T23:24:08.787Z,99.90
2019-04-05T23:26:59.427Z,99.90
2019-04-05T23:29:49.882Z,99.90
2019-04-05T23:32:58.357Z,99.90
2019-04-05T23:35:48.821Z,99.90
2019-04-05T23:38:57.424Z,99.90
2019-04-05T23:41:47.867Z,99.90
2019-04-05T23:44:38.642Z,99.90
2019-04-05T23:47:27.693Z,99.90
2019-04-05T23:50:18.165Z,99.90
2019-04-05T23:53:08.687Z,99.90
2019-04-05T23:56:17.029Z,99.90
2019-04-05T23:59:26.771Z,99.90
